sensor_id;sensor_type;location;lat;lon;timestamp;temperature;humidity
27890;DHT22;15238;49.082;9.102;2023-02-01T00:01:56;5.20;99.90
27890;DHT22;15238;49.082;9.102;2023-02-01T00:03:56;5.20;99.90
27890;DHT22;15238;49.082;9.102;2023-02-01T00:05:58;5.20;99.90
27890;DHT22;15238;49.082;9.102;2023-02-01T00:07:59;5.20;99.90
27890;DHT22;15238;49.082;9.102;2023-02-01T00:09:59;5.10;99.90
27890;DHT22;15238;49.082;9.102;2023-02-01T00:12:00;5.10;99.90
27890;DHT22;15238;49.082;9.102;2023-02-01T00:14:02;5.10;99.90
27890;DHT22;15238;49.082;9.102;2023-02-01T00:16:07;5.10;99.90
27890;DHT22;15238;49.082;9.102;2023-02-01T00:18:08;5.10;99.90
27890;DHT22;15238;49.082;9.102;2023-02-01T00:20:09;5.10;99.90
27890;DHT22;15238;49.082;9.102;2023-02-01T00:22:10;5.10;99.90
27890;DHT22;15238;49.082;9.102;2023-02-01T00:24:11;5.10;99.90
27890;DHT22;15238;49.082;9.102;2023-02-01T00:26:35;5.10;99.90
27890;DHT22;15238;49.082;9.102;2023-02-01T00:28:36;5.00;99.90
27890;DHT22;15238;49.082;9.102;2023-02-01T00:30:37;5.10;99.90
27890;DHT22;15238;49.082;9.102;2023-02-01T00:32:37;5.10;99.90
27890;DHT22;15238;49.082;9.102;2023-02-01T00:34:38;5.10;99.90
27890;DHT22;15238;49.082;9.102;2023-02-01T00:36:38;5.10;99.90
27890;DHT22;15238;49.082;9.102;2023-02-01T00:38:39;5.10;99.90
27890;DHT22;15238;49.082;9.102;2023-02-01T00:40:40;5.10;99.90
27890;DHT22;15238;49.082;9.102;2023-02-01T00:42:40;5.10;99.90
27890;DHT22;15238;49.082;9.102;2023-02-01T00:44:41;5.10;99.90
27890;DHT22;15238;49.082;9.102;2023-02-01T00:46:41;5.10;99.90
27890;DHT22;15238;49.082;9.102;2023-02-01T00:48:42;5.10;99.90
27890;DHT22;15238;49.082;9.102;2023-02-01T00:50:43;5.10;99.90
27890;DHT22;15238;49.082;9.102;2023-02-01T00:52:44;5.10;99.90
27890;DHT22;15238;49.082;9.102;2023-02-01T00:54:44;5.20;99.90
27890;DHT22;15238;49.082;9.102;2023-02-01T00:56:44;5.20;99.90
27890;DHT22;15238;49.082;9.102;2023-02-01T00:58:45;5.20;99.90
27890;DHT22;15238;49.082;9.102;2023-02-01T01:00:46;5.20;99.90
27890;DHT22;15238;49.082;9.102;2023-02-01T01:02:47;5.20;99.90
27890;DHT22;15238;49.082;9.102;2023-02-01T01:04:48;5.20;99.90
27890;DHT22;15238;49.082;9.102;2023-02-01T01:06:48;5.20;99.90
27890;DHT22;15238;49.082;9.102;2023-02-01T01:08:52;5.20;99.90
27890;DHT22;15238;49.082;9.102;2023-02-01T01:10:52;5.30;99.90
27890;DHT22;15238;49.082;9.102;2023-02-01T01:12:53;5.20;99.90
27890;DHT22;15238;49.082;9.102;2023-02-01T01:14:53;5.30;99.90
27890;DHT22;15238;49.082;9.102;2023-02-01T01:16:54;5.20;99.90
27890;DHT22;15238;49.082;9.102;2023-02-01T01:18:55;5.30;99.90
27890;DHT22;15238;49.082;9.102;2023-02-01T01:20:56;5.30;99.90
27890;DHT22;15238;49.082;9.102;2023-02-01T01:22:57;5.30;99.90
27890;DHT22;15238;49.082;9.102;2023-02-01T01:24:57;5.30;99.90
27890;DHT22;15238;49.082;9.102;2023-02-01T01:26:58;5.40;99.90
27890;DHT22;15238;49.082;9.102;2023-02-01T01:28:59;5.40;99.90
27890;DHT22;15238;49.082;9.102;2023-02-01T01:30:59;5.40;99.90
27890;DHT22;15238;49.082;9.102;2023-02-01T01:33:00;5.40;99.90
27890;DHT22;15238;49.082;9.102;2023-02-01T01:35:01;5.40;99.90
27890;DHT22;15238;49.082;9.102;2023-02-01T01:37:01;5.40;99.90
27890;DHT22;15238;49.082;9.102;2023-02-01T01:39:02;5.50;99.90
27890;DHT22;15238;49.082;9.102;2023-02-01T01:41:03;5.40;99.90
27890;DHT22;15238;49.082;9.102;2023-02-01T01:43:13;5.40;99.90
27890;DHT22;15238;49.082;9.102;2023-02-01T01:45:25;5.40;99.90
27890;DHT22;15238;49.082;9.102;2023-02-01T01:47:29;5.50;99.90
27890;DHT22;15238;49.082;9.102;2023-02-01T01:49:31;5.40;99.90
27890;DHT22;15238;49.082;9.102;2023-02-01T01:51:36;5.40;99.90
27890;DHT22;15238;49.082;9.102;2023-02-01T01:53:48;5.40;99.90
27890;DHT22;15238;49.082;9.102;2023-02-01T01:55:51;5.40;99.90
27890;DHT22;15238;49.082;9.102;2023-02-01T01:57:57;5.40;99.90
27890;DHT22;15238;49.082;9.102;2023-02-01T02:00:07;5.40;99.90
27890;DHT22;15238;49.082;9.102;2023-02-01T02:02:08;5.40;99.90
27890;DHT22;15238;49.082;9.102;2023-02-01T02:04:09;5.40;99.90
27890;DHT22;15238;49.082;9.102;2023-02-01T02:08:38;5.40;99.90
27890;DHT22;15238;49.082;9.102;2023-02-01T02:10:39;5.40;99.90
27890;DHT22;15238;49.082;9.102;2023-02-01T02:12:58;5.40;99.90
27890;DHT22;15238;49.082;9.102;2023-02-01T02:14:59;5.40;99.90
27890;DHT22;15238;49.082;9.102;2023-02-01T02:17:23;5.40;99.90
27890;DHT22;15238;49.082;9.102;2023-02-01T02:20:05;5.40;99.90
27890;DHT22;15238;49.082;9.102;2023-02-01T02:22:39;5.40;99.90
27890;DHT22;15238;49.082;9.102;2023-02-01T02:27:42;5.40;99.90
27890;DHT22;15238;49.082;9.102;2023-02-01T02:30:02;5.50;99.90
27890;DHT22;15238;49.082;9.102;2023-02-01T02:34:52;5.40;99.90
27890;DHT22;15238;49.082;9.102;2023-02-01T02:37:37;5.40;99.90
27890;DHT22;15238;49.082;9.102;2023-02-01T02:42:25;5.40;99.90
27890;DHT22;15238;49.082;9.102;2023-02-01T02:44:53;5.40;99.90
27890;DHT22;15238;49.082;9.102;2023-02-01T02:49:43;5.40;99.90
27890;DHT22;15238;49.082;9.102;2023-02-01T02:52:15;5.40;99.90
27890;DHT22;15238;49.082;9.102;2023-02-01T02:54:40;5.40;99.90
27890;DHT22;15238;49.082;9.102;2023-02-01T02:56:48;5.40;99.90
27890;DHT22;15238;49.082;9.102;2023-02-01T02:59:09;5.40;99.90
27890;DHT22;15238;49.082;9.102;2023-02-01T03:01:30;5.40;99.90
27890;DHT22;15238;49.082;9.102;2023-02-01T03:03:49;5.40;99.90
27890;DHT22;15238;49.082;9.102;2023-02-01T03:06:13;5.40;99.90
27890;DHT22;15238;49.082;9.102;2023-02-01T03:08:17;5.40;99.90
27890;DHT22;15238;49.082;9.102;2023-02-01T03:12:37;5.50;99.90
27890;DHT22;15238;49.082;9.102;2023-02-01T03:15:03;5.50;99.90
27890;DHT22;15238;49.082;9.102;2023-02-01T03:17:13;5.50;99.90
27890;DHT22;15238;49.082;9.102;2023-02-01T03:19:34;5.60;99.90
27890;DHT22;15238;49.082;9.102;2023-02-01T03:21:40;5.60;99.90
27890;DHT22;15238;49.082;9.102;2023-02-01T03:23:42;5.60;99.90
27890;DHT22;15238;49.082;9.102;2023-02-01T03:25:47;5.60;99.90
27890;DHT22;15238;49.082;9.102;2023-02-01T03:27:58;5.60;99.90
27890;DHT22;15238;49.082;9.102;2023-02-01T03:30:17;5.60;99.90
27890;DHT22;15238;49.082;9.102;2023-02-01T03:32:20;5.70;99.90
27890;DHT22;15238;49.082;9.102;2023-02-01T03:34:21;5.70;99.90
27890;DHT22;15238;49.082;9.102;2023-02-01T03:38:41;5.70;99.90
27890;DHT22;15238;49.082;9.102;2023-02-01T03:40:47;5.70;99.90
27890;DHT22;15238;49.082;9.102;2023-02-01T03:42:52;5.60;99.90
27890;DHT22;15238;49.082;9.102;2023-02-01T03:45:13;5.60;99.90
27890;DHT22;15238;49.082;9.102;2023-02-01T03:47:27;5.60;99.90
27890;DHT22;15238;49.082;9.102;2023-02-01T03:49:36;5.60;99.90
27890;DHT22;15238;49.082;9.102;2023-02-01T03:51:40;5.60;99.90
27890;DHT22;15238;49.082;9.102;2023-02-01T03:53:41;5.60;99.90
27890;DHT22;15238;49.082;9.102;2023-02-01T03:55:43;5.60;99.90
27890;DHT22;15238;49.082;9.102;2023-02-01T03:57:57;5.60;99.90
27890;DHT22;15238;49.082;9.102;2023-02-01T04:02:17;5.70;99.90
27890;DHT22;15238;49.082;9.102;2023-02-01T04:04:18;5.70;99.90
27890;DHT22;15238;49.082;9.102;2023-02-01T04:06:22;5.70;99.90
27890;DHT22;15238;49.082;9.102;2023-02-01T04:08:23;5.70;99.90
27890;DHT22;15238;49.082;9.102;2023-02-01T04:10:24;5.70;99.90
27890;DHT22;15238;49.082;9.102;2023-02-01T04:12:24;5.70;99.90
27890;DHT22;15238;49.082;9.102;2023-02-01T04:14:25;5.70;99.90
27890;DHT22;15238;49.082;9.102;2023-02-01T04:16:25;5.70;99.90
27890;DHT22;15238;49.082;9.102;2023-02-01T04:18:26;5.70;99.90
27890;DHT22;15238;49.082;9.102;2023-02-01T04:20:27;5.70;99.90
27890;DHT22;15238;49.082;9.102;2023-02-01T04:22:27;5.70;99.90
27890;DHT22;15238;49.082;9.102;2023-02-01T04:24:29;5.60;99.90
27890;DHT22;15238;49.082;9.102;2023-02-01T04:26:29;5.60;99.90
27890;DHT22;15238;49.082;9.102;2023-02-01T04:28:30;5.60;99.90
27890;DHT22;15238;49.082;9.102;2023-02-01T04:30:30;5.60;99.90
27890;DHT22;15238;49.082;9.102;2023-02-01T04:32:31;5.60;99.90
27890;DHT22;15238;49.082;9.102;2023-02-01T04:34:31;5.60;99.90
27890;DHT22;15238;49.082;9.102;2023-02-01T04:36:32;5.60;99.90
27890;DHT22;15238;49.082;9.102;2023-02-01T04:38:32;5.60;99.90
27890;DHT22;15238;49.082;9.102;2023-02-01T04:40:33;5.60;99.90
27890;DHT22;15238;49.082;9.102;2023-02-01T04:42:33;5.60;99.90
27890;DHT22;15238;49.082;9.102;2023-02-01T04:44:34;5.60;99.90
27890;DHT22;15238;49.082;9.102;2023-02-01T04:46:37;5.60;99.90
27890;DHT22;15238;49.082;9.102;2023-02-01T04:48:37;5.60;99.90
27890;DHT22;15238;49.082;9.102;2023-02-01T04:50:38;5.60;99.90
27890;DHT22;15238;49.082;9.102;2023-02-01T04:52:38;5.60;99.90
27890;DHT22;15238;49.082;9.102;2023-02-01T04:54:39;5.50;99.90
27890;DHT22;15238;49.082;9.102;2023-02-01T04:56:40;5.50;99.90
27890;DHT22;15238;49.082;9.102;2023-02-01T04:58:40;5.50;99.90
27890;DHT22;15238;49.082;9.102;2023-02-01T05:00:41;5.50;99.90
27890;DHT22;15238;49.082;9.102;2023-02-01T05:02:41;5.50;99.90
27890;DHT22;15238;49.082;9.102;2023-02-01T05:04:42;5.50;99.90
27890;DHT22;15238;49.082;9.102;2023-02-01T05:06:42;5.40;99.90
27890;DHT22;15238;49.082;9.102;2023-02-01T05:08:43;5.40;99.90
27890;DHT22;15238;49.082;9.102;2023-02-01T05:10:44;5.50;99.90
27890;DHT22;15238;49.082;9.102;2023-02-01T05:12:45;5.50;99.90
27890;DHT22;15238;49.082;9.102;2023-02-01T05:15:05;5.50;99.90
27890;DHT22;15238;49.082;9.102;2023-02-01T05:17:05;5.50;99.90
27890;DHT22;15238;49.082;9.102;2023-02-01T05:19:06;5.50;99.90
27890;DHT22;15238;49.082;9.102;2023-02-01T05:21:07;5.50;99.90
27890;DHT22;15238;49.082;9.102;2023-02-01T05:23:07;5.40;99.90
27890;DHT22;15238;49.082;9.102;2023-02-01T05:25:08;5.40;99.90
27890;DHT22;15238;49.082;9.102;2023-02-01T05:27:08;5.30;99.90
27890;DHT22;15238;49.082;9.102;2023-02-01T05:29:09;5.30;99.90
27890;DHT22;15238;49.082;9.102;2023-02-01T05:31:10;5.30;99.90
27890;DHT22;15238;49.082;9.102;2023-02-01T05:33:11;5.40;99.90
27890;DHT22;15238;49.082;9.102;2023-02-01T05:35:11;5.40;99.90
27890;DHT22;15238;49.082;9.102;2023-02-01T05:37:12;5.40;99.90
27890;DHT22;15238;49.082;9.102;2023-02-01T05:39:12;5.40;99.90
27890;DHT22;15238;49.082;9.102;2023-02-01T05:41:13;5.30;99.90
27890;DHT22;15238;49.082;9.102;2023-02-01T05:43:13;5.40;99.90
27890;DHT22;15238;49.082;9.102;2023-02-01T05:45:14;5.40;99.90
27890;DHT22;15238;49.082;9.102;2023-02-01T05:47:14;5.30;99.90
27890;DHT22;15238;49.082;9.102;2023-02-01T05:49:15;5.40;99.90
27890;DHT22;15238;49.082;9.102;2023-02-01T05:51:15;5.40;99.90
27890;DHT22;15238;49.082;9.102;2023-02-01T05:53:16;5.40;99.90
27890;DHT22;15238;49.082;9.102;2023-02-01T05:55:17;5.40;99.90
27890;DHT22;15238;49.082;9.102;2023-02-01T05:57:17;5.40;99.90
27890;DHT22;15238;49.082;9.102;2023-02-01T05:59:18;5.40;99.90
27890;DHT22;15238;49.082;9.102;2023-02-01T06:01:18;5.40;99.90
27890;DHT22;15238;49.082;9.102;2023-02-01T06:03:19;5.40;99.90
27890;DHT22;15238;49.082;9.102;2023-02-01T06:05:19;5.40;99.90
27890;DHT22;15238;49.082;9.102;2023-02-01T06:07:20;5.40;99.90
27890;DHT22;15238;49.082;9.102;2023-02-01T06:09:21;5.40;99.90
27890;DHT22;15238;49.082;9.102;2023-02-01T06:11:21;5.40;99.90
27890;DHT22;15238;49.082;9.102;2023-02-01T06:13:22;5.40;99.90
27890;DHT22;15238;49.082;9.102;2023-02-01T06:15:22;5.40;99.90
27890;DHT22;15238;49.082;9.102;2023-02-01T06:17:23;5.40;99.90
27890;DHT22;15238;49.082;9.102;2023-02-01T06:19:24;5.40;99.90
27890;DHT22;15238;49.082;9.102;2023-02-01T06:21:25;5.40;99.90
27890;DHT22;15238;49.082;9.102;2023-02-01T06:23:27;5.40;99.90
27890;DHT22;15238;49.082;9.102;2023-02-01T06:25:27;5.40;99.90
27890;DHT22;15238;49.082;9.102;2023-02-01T06:27:28;5.40;99.90
27890;DHT22;15238;49.082;9.102;2023-02-01T06:29:28;5.40;99.90
27890;DHT22;15238;49.082;9.102;2023-02-01T06:31:29;5.40;99.90
27890;DHT22;15238;49.082;9.102;2023-02-01T06:33:29;5.40;99.90
27890;DHT22;15238;49.082;9.102;2023-02-01T06:35:30;5.40;99.90
27890;DHT22;15238;49.082;9.102;2023-02-01T06:37:30;5.50;99.90
27890;DHT22;15238;49.082;9.102;2023-02-01T06:39:31;5.40;99.90
27890;DHT22;15238;49.082;9.102;2023-02-01T06:41:31;5.40;99.90
27890;DHT22;15238;49.082;9.102;2023-02-01T06:43:34;5.40;99.90
27890;DHT22;15238;49.082;9.102;2023-02-01T06:45:35;5.30;99.90
27890;DHT22;15238;49.082;9.102;2023-02-01T06:47:35;5.30;99.90
27890;DHT22;15238;49.082;9.102;2023-02-01T06:49:36;5.20;99.90
27890;DHT22;15238;49.082;9.102;2023-02-01T06:51:36;5.20;99.90
27890;DHT22;15238;49.082;9.102;2023-02-01T06:53:37;5.20;99.90
27890;DHT22;15238;49.082;9.102;2023-02-01T06:55:37;5.20;99.90
27890;DHT22;15238;49.082;9.102;2023-02-01T06:57:38;5.20;99.90
27890;DHT22;15238;49.082;9.102;2023-02-01T06:59:39;5.30;99.90
27890;DHT22;15238;49.082;9.102;2023-02-01T07:01:39;5.20;99.90
27890;DHT22;15238;49.082;9.102;2023-02-01T07:03:40;5.20;99.90
27890;DHT22;15238;49.082;9.102;2023-02-01T07:05:41;5.30;99.90
27890;DHT22;15238;49.082;9.102;2023-02-01T07:07:42;5.30;99.90
27890;DHT22;15238;49.082;9.102;2023-02-01T07:09:42;5.30;99.90
27890;DHT22;15238;49.082;9.102;2023-02-01T07:11:43;5.30;99.90
27890;DHT22;15238;49.082;9.102;2023-02-01T07:13:44;5.40;99.90
27890;DHT22;15238;49.082;9.102;2023-02-01T07:15:45;5.40;99.90
27890;DHT22;15238;49.082;9.102;2023-02-01T07:17:48;5.30;99.90
27890;DHT22;15238;49.082;9.102;2023-02-01T07:19:49;5.30;99.90
27890;DHT22;15238;49.082;9.102;2023-02-01T07:21:49;5.30;99.90
27890;DHT22;15238;49.082;9.102;2023-02-01T07:23:50;5.30;99.90
27890;DHT22;15238;49.082;9.102;2023-02-01T07:25:58;5.30;99.90
27890;DHT22;15238;49.082;9.102;2023-02-01T07:27:58;5.20;99.90
27890;DHT22;15238;49.082;9.102;2023-02-01T07:29:59;5.20;99.90
27890;DHT22;15238;49.082;9.102;2023-02-01T07:32:02;5.20;99.90
27890;DHT22;15238;49.082;9.102;2023-02-01T07:34:02;5.20;99.90
27890;DHT22;15238;49.082;9.102;2023-02-01T07:36:05;5.20;99.90
27890;DHT22;15238;49.082;9.102;2023-02-01T07:38:06;5.20;99.90
27890;DHT22;15238;49.082;9.102;2023-02-01T07:40:07;5.20;99.90
27890;DHT22;15238;49.082;9.102;2023-02-01T07:42:08;5.20;99.90
27890;DHT22;15238;49.082;9.102;2023-02-01T07:44:09;5.10;99.90
27890;DHT22;15238;49.082;9.102;2023-02-01T07:46:10;5.00;99.90
27890;DHT22;15238;49.082;9.102;2023-02-01T07:48:10;5.00;99.90
27890;DHT22;15238;49.082;9.102;2023-02-01T07:50:11;5.00;99.90
27890;DHT22;15238;49.082;9.102;2023-02-01T07:52:11;5.00;99.90
27890;DHT22;15238;49.082;9.102;2023-02-01T07:54:16;4.90;99.90
27890;DHT22;15238;49.082;9.102;2023-02-01T07:56:20;5.00;99.90
27890;DHT22;15238;49.082;9.102;2023-02-01T07:58:23;5.00;99.90
27890;DHT22;15238;49.082;9.102;2023-02-01T08:00:24;5.00;99.90
27890;DHT22;15238;49.082;9.102;2023-02-01T08:02:43;5.10;99.90
27890;DHT22;15238;49.082;9.102;2023-02-01T08:04:44;5.10;99.90
27890;DHT22;15238;49.082;9.102;2023-02-01T08:06:44;5.10;99.90
27890;DHT22;15238;49.082;9.102;2023-02-01T08:08:46;5.10;99.90
27890;DHT22;15238;49.082;9.102;2023-02-01T08:10:47;5.10;99.90
27890;DHT22;15238;49.082;9.102;2023-02-01T08:12:47;5.20;99.90
27890;DHT22;15238;49.082;9.102;2023-02-01T08:14:49;5.10;99.90
27890;DHT22;15238;49.082;9.102;2023-02-01T08:16:49;5.20;99.90
27890;DHT22;15238;49.082;9.102;2023-02-01T08:18:50;5.20;99.90
27890;DHT22;15238;49.082;9.102;2023-02-01T08:20:51;5.20;99.90
27890;DHT22;15238;49.082;9.102;2023-02-01T08:22:52;5.20;99.90
27890;DHT22;15238;49.082;9.102;2023-02-01T08:24:52;5.30;99.90
27890;DHT22;15238;49.082;9.102;2023-02-01T08:27:01;5.30;99.90
27890;DHT22;15238;49.082;9.102;2023-02-01T08:29:04;5.30;99.90
27890;DHT22;15238;49.082;9.102;2023-02-01T08:31:07;5.40;99.90
27890;DHT22;15238;49.082;9.102;2023-02-01T08:33:08;5.50;99.90
27890;DHT22;15238;49.082;9.102;2023-02-01T08:35:09;5.40;99.90
27890;DHT22;15238;49.082;9.102;2023-02-01T08:37:09;5.50;99.90
27890;DHT22;15238;49.082;9.102;2023-02-01T08:39:11;5.40;99.90
27890;DHT22;15238;49.082;9.102;2023-02-01T08:41:13;5.50;99.90
27890;DHT22;15238;49.082;9.102;2023-02-01T08:43:14;5.50;99.90
27890;DHT22;15238;49.082;9.102;2023-02-01T08:45:15;5.50;99.90
27890;DHT22;15238;49.082;9.102;2023-02-01T08:47:15;5.60;99.90
27890;DHT22;15238;49.082;9.102;2023-02-01T08:49:16;5.60;99.90
27890;DHT22;15238;49.082;9.102;2023-02-01T08:51:19;5.70;99.90
27890;DHT22;15238;49.082;9.102;2023-02-01T08:53:20;5.80;99.90
27890;DHT22;15238;49.082;9.102;2023-02-01T08:55:20;5.80;99.90
27890;DHT22;15238;49.082;9.102;2023-02-01T08:57:21;5.90;99.90
27890;DHT22;15238;49.082;9.102;2023-02-01T08:59:21;5.90;99.90
27890;DHT22;15238;49.082;9.102;2023-02-01T09:01:22;5.90;99.90
27890;DHT22;15238;49.082;9.102;2023-02-01T09:03:22;5.90;99.90
27890;DHT22;15238;49.082;9.102;2023-02-01T09:05:23;6.00;99.90
27890;DHT22;15238;49.082;9.102;2023-02-01T09:07:26;5.90;99.90
27890;DHT22;15238;49.082;9.102;2023-02-01T09:09:27;6.00;99.90
27890;DHT22;15238;49.082;9.102;2023-02-01T09:11:28;6.00;99.90
27890;DHT22;15238;49.082;9.102;2023-02-01T09:13:29;6.00;99.90
27890;DHT22;15238;49.082;9.102;2023-02-01T09:15:29;6.10;99.90
27890;DHT22;15238;49.082;9.102;2023-02-01T09:17:30;6.10;99.90
27890;DHT22;15238;49.082;9.102;2023-02-01T09:19:31;6.20;99.90
27890;DHT22;15238;49.082;9.102;2023-02-01T09:21:31;6.30;99.90
27890;DHT22;15238;49.082;9.102;2023-02-01T09:23:32;6.40;99.90
27890;DHT22;15238;49.082;9.102;2023-02-01T09:25:33;6.30;99.90
27890;DHT22;15238;49.082;9.102;2023-02-01T09:27:34;6.40;99.90
27890;DHT22;15238;49.082;9.102;2023-02-01T09:29:35;6.30;99.90
27890;DHT22;15238;49.082;9.102;2023-02-01T09:31:36;6.20;99.90
27890;DHT22;15238;49.082;9.102;2023-02-01T09:33:37;6.10;99.90
27890;DHT22;15238;49.082;9.102;2023-02-01T09:35:37;6.10;99.90
27890;DHT22;15238;49.082;9.102;2023-02-01T09:37:38;6.00;99.90
27890;DHT22;15238;49.082;9.102;2023-02-01T09:39:38;5.90;99.90
27890;DHT22;15238;49.082;9.102;2023-02-01T09:41:48;5.90;99.90
27890;DHT22;15238;49.082;9.102;2023-02-01T09:44:01;6.00;99.90
27890;DHT22;15238;49.082;9.102;2023-02-01T09:46:28;5.90;99.90
27890;DHT22;15238;49.082;9.102;2023-02-01T09:48:32;6.00;99.90
27890;DHT22;15238;49.082;9.102;2023-02-01T09:50:37;6.00;99.90
27890;DHT22;15238;49.082;9.102;2023-02-01T09:53:04;6.20;99.90
27890;DHT22;15238;49.082;9.102;2023-02-01T10:00:23;6.30;99.90
27890;DHT22;15238;49.082;9.102;2023-02-01T10:02:27;6.30;99.90
27890;DHT22;15238;49.082;9.102;2023-02-01T10:04:28;6.30;99.90
27890;DHT22;15238;49.082;9.102;2023-02-01T10:08:55;6.30;99.90
27890;DHT22;15238;49.082;9.102;2023-02-01T10:11:14;6.40;99.90
27890;DHT22;15238;49.082;9.102;2023-02-01T10:13:38;6.40;99.90
27890;DHT22;15238;49.082;9.102;2023-02-01T10:15:52;6.40;99.90
27890;DHT22;15238;49.082;9.102;2023-02-01T10:18:15;6.50;99.90
27890;DHT22;15238;49.082;9.102;2023-02-01T10:27:28;6.60;99.90
27890;DHT22;15238;49.082;9.102;2023-02-01T10:29:44;6.60;99.90
27890;DHT22;15238;49.082;9.102;2023-02-01T10:31:46;6.60;99.90
27890;DHT22;15238;49.082;9.102;2023-02-01T10:33:49;6.60;99.90
27890;DHT22;15238;49.082;9.102;2023-02-01T10:36:01;6.60;99.90
27890;DHT22;15238;49.082;9.102;2023-02-01T10:38:07;6.60;99.90
27890;DHT22;15238;49.082;9.102;2023-02-01T10:40:17;6.50;99.90
27890;DHT22;15238;49.082;9.102;2023-02-01T10:42:23;6.40;99.90
27890;DHT22;15238;49.082;9.102;2023-02-01T10:44:29;6.40;99.90
27890;DHT22;15238;49.082;9.102;2023-02-01T10:46:31;6.40;99.90
27890;DHT22;15238;49.082;9.102;2023-02-01T10:48:32;6.30;99.90
27890;DHT22;15238;49.082;9.102;2023-02-01T10:50:47;6.40;99.90
27890;DHT22;15238;49.082;9.102;2023-02-01T10:54:00;6.40;99.90
27890;DHT22;15238;49.082;9.102;2023-02-01T10:55:47;6.50;99.90
27890;DHT22;15238;49.082;9.102;2023-02-01T10:57:57;6.60;99.90
27890;DHT22;15238;49.082;9.102;2023-02-01T11:00:03;6.70;99.90
27890;DHT22;15238;49.082;9.102;2023-02-01T11:02:26;6.70;99.90
27890;DHT22;15238;49.082;9.102;2023-02-01T11:04:34;6.80;99.90
27890;DHT22;15238;49.082;9.102;2023-02-01T11:06:37;6.70;99.90
27890;DHT22;15238;49.082;9.102;2023-02-01T11:08:45;6.70;99.90
27890;DHT22;15238;49.082;9.102;2023-02-01T11:10:46;6.70;99.90
27890;DHT22;15238;49.082;9.102;2023-02-01T11:12:53;6.70;99.90
27890;DHT22;15238;49.082;9.102;2023-02-01T11:15:18;6.60;99.90
27890;DHT22;15238;49.082;9.102;2023-02-01T11:17:42;6.70;99.90
27890;DHT22;15238;49.082;9.102;2023-02-01T11:19:58;6.70;99.90
27890;DHT22;15238;49.082;9.102;2023-02-01T11:22:00;6.60;99.90
27890;DHT22;15238;49.082;9.102;2023-02-01T11:24:05;6.60;99.90
27890;DHT22;15238;49.082;9.102;2023-02-01T11:26:22;6.70;99.90
27890;DHT22;15238;49.082;9.102;2023-02-01T11:28:30;6.70;99.90
27890;DHT22;15238;49.082;9.102;2023-02-01T11:30:37;6.70;99.90
27890;DHT22;15238;49.082;9.102;2023-02-01T11:32:40;6.70;99.90
27890;DHT22;15238;49.082;9.102;2023-02-01T11:34:50;6.60;99.90
27890;DHT22;15238;49.082;9.102;2023-02-01T11:36:51;6.60;99.90
27890;DHT22;15238;49.082;9.102;2023-02-01T11:41:20;6.50;99.90
27890;DHT22;15238;49.082;9.102;2023-02-01T11:43:27;6.60;99.90
27890;DHT22;15238;49.082;9.102;2023-02-01T11:45:30;6.70;99.90
27890;DHT22;15238;49.082;9.102;2023-02-01T11:47:38;6.70;99.90
27890;DHT22;15238;49.082;9.102;2023-02-01T11:49:39;6.70;99.90
27890;DHT22;15238;49.082;9.102;2023-02-01T11:51:54;6.80;99.90
27890;DHT22;15238;49.082;9.102;2023-02-01T11:54:14;6.80;99.90
27890;DHT22;15238;49.082;9.102;2023-02-01T11:56:31;6.80;99.90
27890;DHT22;15238;49.082;9.102;2023-02-01T12:01:05;6.70;99.90
27890;DHT22;15238;49.082;9.102;2023-02-01T12:05:41;6.60;99.90
27890;DHT22;15238;49.082;9.102;2023-02-01T12:10:00;6.50;99.90
27890;DHT22;15238;49.082;9.102;2023-02-01T12:12:12;6.60;99.90
27890;DHT22;15238;49.082;9.102;2023-02-01T12:14:31;6.60;99.90
27890;DHT22;15238;49.082;9.102;2023-02-01T12:21:22;6.70;99.90
27890;DHT22;15238;49.082;9.102;2023-02-01T12:23:42;6.70;99.90
27890;DHT22;15238;49.082;9.102;2023-02-01T12:28:23;6.80;99.90
27890;DHT22;15238;49.082;9.102;2023-02-01T12:42:32;6.70;99.90
27890;DHT22;15238;49.082;9.102;2023-02-01T12:44:43;6.70;99.90
27890;DHT22;15238;49.082;9.102;2023-02-01T12:46:49;6.70;99.90
27890;DHT22;15238;49.082;9.102;2023-02-01T12:48:56;6.60;99.90
27890;DHT22;15238;49.082;9.102;2023-02-01T12:51:12;6.70;99.90
27890;DHT22;15238;49.082;9.102;2023-02-01T12:53:27;6.60;99.90
27890;DHT22;15238;49.082;9.102;2023-02-01T12:55:42;6.50;99.90
27890;DHT22;15238;49.082;9.102;2023-02-01T12:57:50;6.60;99.90
27890;DHT22;15238;49.082;9.102;2023-02-01T13:02:28;6.70;99.90
27890;DHT22;15238;49.082;9.102;2023-02-01T13:04:58;6.70;99.90
27890;DHT22;15238;49.082;9.102;2023-02-01T13:11:33;6.80;99.90
27890;DHT22;15238;49.082;9.102;2023-02-01T13:18:18;6.70;99.90
27890;DHT22;15238;49.082;9.102;2023-02-01T13:20:35;6.70;99.90
27890;DHT22;15238;49.082;9.102;2023-02-01T13:22:54;6.80;99.90
27890;DHT22;15238;49.082;9.102;2023-02-01T13:25:27;6.90;99.90
27890;DHT22;15238;49.082;9.102;2023-02-01T13:27:30;7.00;99.90
27890;DHT22;15238;49.082;9.102;2023-02-01T13:29:33;6.80;99.90
27890;DHT22;15238;49.082;9.102;2023-02-01T13:32:02;6.80;99.90
27890;DHT22;15238;49.082;9.102;2023-02-01T13:34:38;6.70;99.90
27890;DHT22;15238;49.082;9.102;2023-02-01T13:37:04;6.70;99.90
27890;DHT22;15238;49.082;9.102;2023-02-01T13:39:32;6.70;99.90
27890;DHT22;15238;49.082;9.102;2023-02-01T13:41:51;6.60;99.90
27890;DHT22;15238;49.082;9.102;2023-02-01T13:44:02;6.70;99.90
27890;DHT22;15238;49.082;9.102;2023-02-01T13:46:08;6.60;99.90
27890;DHT22;15238;49.082;9.102;2023-02-01T13:48:20;6.60;99.90
27890;DHT22;15238;49.082;9.102;2023-02-01T13:52:43;6.60;99.90
27890;DHT22;15238;49.082;9.102;2023-02-01T13:54:45;6.60;99.90
27890;DHT22;15238;49.082;9.102;2023-02-01T13:56:45;6.60;99.90
27890;DHT22;15238;49.082;9.102;2023-02-01T13:58:47;6.70;99.90
27890;DHT22;15238;49.082;9.102;2023-02-01T14:00:49;6.60;99.90
27890;DHT22;15238;49.082;9.102;2023-02-01T14:04:59;6.70;99.90
27890;DHT22;15238;49.082;9.102;2023-02-01T14:07:01;6.60;99.90
27890;DHT22;15238;49.082;9.102;2023-02-01T14:11:32;6.70;99.90
27890;DHT22;15238;49.082;9.102;2023-02-01T14:15:36;6.70;99.90
27890;DHT22;15238;49.082;9.102;2023-02-01T14:17:37;6.70;99.90
27890;DHT22;15238;49.082;9.102;2023-02-01T14:19:37;6.60;99.90
27890;DHT22;15238;49.082;9.102;2023-02-01T14:21:52;6.60;99.90
27890;DHT22;15238;49.082;9.102;2023-02-01T14:23:59;6.50;99.90
27890;DHT22;15238;49.082;9.102;2023-02-01T14:26:05;6.60;99.90
27890;DHT22;15238;49.082;9.102;2023-02-01T14:28:25;6.60;99.90
27890;DHT22;15238;49.082;9.102;2023-02-01T14:30:27;6.70;99.90
27890;DHT22;15238;49.082;9.102;2023-02-01T14:32:38;6.60;99.90
27890;DHT22;15238;49.082;9.102;2023-02-01T14:37:04;6.60;99.90
27890;DHT22;15238;49.082;9.102;2023-02-01T14:39:19;6.50;99.90
27890;DHT22;15238;49.082;9.102;2023-02-01T14:41:32;6.50;99.90
27890;DHT22;15238;49.082;9.102;2023-02-01T14:46:11;6.50;99.90
27890;DHT22;15238;49.082;9.102;2023-02-01T14:52:40;6.40;99.90
27890;DHT22;15238;49.082;9.102;2023-02-01T14:54:47;6.40;99.90
27890;DHT22;15238;49.082;9.102;2023-02-01T14:56:48;6.40;99.90
27890;DHT22;15238;49.082;9.102;2023-02-01T14:58:59;6.40;99.90